createdAt,value
2023-05-04T00:02:11.506Z,96036.94
2023-05-04T00:04:39.275Z,96027.53
2023-05-04T00:07:07.059Z,96029.50
2023-05-04T00:09:36.549Z,96023.44
2023-05-04T00:12:04.680Z,96029.03
2023-05-04T00:14:32.280Z,96027.38
2023-05-04T00:17:00.029Z,96030.31
2023-05-04T00:19:27.765Z,96023.41
2023-05-04T00:21:55.378Z,96025.38
2023-05-04T00:24:23.131Z,96022.59
2023-05-04T00:26:52.096Z,96009.59
2023-05-04T00:29:20.189Z,96018.81
2023-05-04T00:31:48.013Z,96016.31
2023-05-04T00:34:16.149Z,96011.88
2023-05-04T00:36:43.768Z,96006.97
2023-05-04T00:39:11.735Z,96003.69
2023-05-04T00:41:39.435Z,96001.22
2023-05-04T00:44:08.673Z,95998.75
2023-05-04T00:46:38.301Z,96002.66
2023-05-04T00:49:07.668Z,96005.63
2023-05-04T00:51:36.676Z,96007.44
2023-05-04T00:54:05.134Z,96001.66
2023-05-04T00:56:34.086Z,96004.47
2023-05-04T00:59:01.935Z,96010.88
2023-05-04T01:01:31.309Z,96010.88
2023-05-04T01:03:59.325Z,96002.31
2023-05-04T01:06:36.161Z,96006.88
2023-05-04T01:09:12.141Z,96002.28
2023-05-04T01:11:45.118Z,95999.94
2023-05-04T01:14:15.509Z,95996.66
2023-05-04T01:16:44.507Z,95992.41
2023-05-04T01:19:12.334Z,95993.38
2023-05-04T01:21:41.604Z,95997.00
2023-05-04T01:24:09.439Z,95997.34
2023-05-04T01:26:41.785Z,95999.28
2023-05-04T01:29:14.526Z,95989.09
2023-05-04T01:31:44.547Z,95994.50
2023-05-04T01:34:12.988Z,96001.56
2023-05-04T01:36:43.313Z,95996.63
2023-05-04T01:39:11.195Z,95992.50
2023-05-04T01:41:38.803Z,95999.75
2023-05-04T01:44:07.076Z,95997.44
2023-05-04T01:46:34.861Z,95993.31
2023-05-04T01:49:02.848Z,95992.66
2023-05-04T01:51:30.464Z,95993.78
2023-05-04T01:53:59.559Z,95996.88
2023-05-04T01:56:27.179Z,95998.38
2023-05-04T01:58:55.198Z,96002.44
2023-05-04T02:01:22.822Z,95997.97
2023-05-04T02:03:50.806Z,95997.47
2023-05-04T02:06:18.520Z,95994.00
2023-05-04T02:08:47.848Z,95990.03
2023-05-04T02:11:16.926Z,96000.69
2023-05-04T02:13:46.512Z,95988.88
2023-05-04T02:16:14.282Z,95984.44
2023-05-04T02:18:42.172Z,95989.53
2023-05-04T02:21:09.967Z,95989.88
2023-05-04T02:23:37.589Z,95989.69
2023-05-04T02:26:05.232Z,95988.72
2023-05-04T02:28:34.456Z,95984.63
2023-05-04T02:31:02.808Z,95979.34
2023-05-04T02:33:31.133Z,95979.66
2023-05-04T02:35:58.731Z,95973.56
2023-05-04T02:38:27.576Z,95979.66
2023-05-04T02:40:55.329Z,95984.28
2023-05-04T02:43:22.962Z,95977.22
2023-05-04T02:45:52.428Z,95982.81
2023-05-04T02:48:21.200Z,95989.16
2023-05-04T02:50:49.112Z,95991.47
2023-05-04T02:53:16.874Z,95986.22
2023-05-04T02:55:45.192Z,95978.34
2023-05-04T02:58:12.898Z,95984.56
2023-05-04T03:00:40.722Z,95978.66
2023-05-04T03:03:09.749Z,95983.06
2023-05-04T03:05:37.895Z,95981.28
2023-05-04T03:08:05.955Z,95987.47
2023-05-04T03:10:33.880Z,95980.59
2023-05-04T03:13:05.942Z,95976.97
2023-05-04T03:15:33.900Z,95979.59
2023-05-04T03:18:02.400Z,95977.91
2023-05-04T03:20:33.089Z,95977.41
2023-05-04T03:23:02.285Z,95976.91
2023-05-04T03:25:31.596Z,95971.50
2023-05-04T03:27:59.975Z,95977.75
2023-05-04T03:30:27.767Z,95980.53
2023-05-04T03:32:58.277Z,95973.59
2023-05-04T03:35:26.159Z,95976.22
2023-05-04T03:37:57.635Z,95984.09
2023-05-04T03:40:25.790Z,95979.84
2023-05-04T03:42:55.105Z,95980.81
2023-05-04T03:45:28.448Z,95982.13
2023-05-04T03:47:56.250Z,95972.88
2023-05-04T03:50:24.493Z,95975.84
2023-05-04T03:52:52.143Z,95984.38
2023-05-04T03:55:24.451Z,95980.09
2023-05-04T03:57:52.539Z,95982.56
2023-05-04T04:00:20.899Z,95974.84
2023-05-04T04:02:57.444Z,95977.63
2023-05-04T04:05:25.389Z,95969.59
2023-05-04T04:07:54.453Z,95971.09
2023-05-04T04:10:22.315Z,95971.78
2023-05-04T04:12:51.386Z,95973.91
2023-05-04T04:15:19.204Z,95975.56
2023-05-04T04:17:47.074Z,95977.75
2023-05-04T04:20:15.243Z,95980.19
2023-05-04T04:22:42.926Z,95984.84
2023-05-04T04:25:10.692Z,95982.88
2023-05-04T04:27:38.562Z,95989.78
2023-05-04T04:30:09.121Z,95989.78
2023-05-04T04:32:37.447Z,95992.41
2023-05-04T04:35:06.809Z,95987.59
2023-05-04T04:37:34.438Z,95987.47
2023-05-04T04:40:03.270Z,95985.84
2023-05-04T04:42:31.027Z,95983.25
2023-05-04T04:44:58.630Z,95986.25
2023-05-04T04:47:27.801Z,95982.69
2023-05-04T04:49:55.592Z,95979.41
2023-05-04T04:52:23.742Z,95987.31
2023-05-04T04:54:51.804Z,95983.44
2023-05-04T04:57:19.525Z,95985.63
2023-05-04T04:59:47.296Z,95979.88
2023-05-04T05:02:15.267Z,95978.63
2023-05-04T05:04:44.248Z,95973.38
2023-05-04T05:07:11.927Z,95971.75
2023-05-04T05:09:39.903Z,95972.44
2023-05-04T05:12:07.794Z,95977.56
2023-05-04T05:14:35.750Z,95974.06
2023-05-04T05:17:04.905Z,95980.66
2023-05-04T05:19:36.902Z,95971.44
2023-05-04T05:22:05.968Z,95968.47
2023-05-04T05:24:33.828Z,95979.63
2023-05-04T05:27:01.779Z,95977.97
2023-05-04T05:29:29.592Z,95981.75
2023-05-04T05:31:57.231Z,95980.19
2023-05-04T05:34:25.015Z,95976.88
2023-05-04T05:36:52.615Z,95974.22
2023-05-04T05:39:21.590Z,95978.47
2023-05-04T05:41:49.230Z,95979.75
2023-05-04T05:44:16.971Z,95992.88
2023-05-04T05:46:44.926Z,95984.94
2023-05-04T05:49:12.597Z,95987.72
2023-05-04T05:51:40.217Z,95986.19
2023-05-04T05:54:07.928Z,95993.78
2023-05-04T05:56:36.885Z,95988.13
2023-05-04T05:59:04.578Z,95990.41
2023-05-04T06:01:32.424Z,95986.44
2023-05-04T06:04:00.395Z,95991.19
2023-05-04T06:06:28.210Z,95989.00
2023-05-04T06:08:55.813Z,95975.06
2023-05-04T06:11:23.416Z,95981.84
2023-05-04T06:13:52.490Z,95982.06
2023-05-04T06:16:20.319Z,95981.28
2023-05-04T06:18:47.998Z,95976.94
2023-05-04T06:21:15.845Z,95980.63
2023-05-04T06:23:43.551Z,95980.16
2023-05-04T06:26:11.401Z,95978.97
2023-05-04T06:28:38.997Z,95980.19
2023-05-04T06:31:08.546Z,95975.38
2023-05-04T06:33:36.275Z,95972.13
2023-05-04T06:36:04.035Z,95962.28
2023-05-04T06:38:31.625Z,95961.06
2023-05-04T06:40:59.433Z,95966.06
2023-05-04T06:43:27.080Z,95970.03
2023-05-04T06:45:54.752Z,95969.38
2023-05-04T06:48:23.732Z,95971.53
2023-05-04T06:50:51.369Z,95967.75
2023-05-04T06:53:18.965Z,95965.38
2023-05-04T06:55:46.732Z,95962.03
2023-05-04T06:58:14.387Z,95971.88
2023-05-04T07:00:43.559Z,95964.78
2023-05-04T07:03:11.460Z,95966.94
2023-05-04T07:05:40.558Z,95966.81
2023-05-04T07:08:09.684Z,95962.19
2023-05-04T07:10:37.591Z,95963.88
2023-05-04T07:13:05.828Z,95955.75
2023-05-04T07:15:34.507Z,95961.75
2023-05-04T07:18:02.409Z,95964.78
2023-05-04T07:20:30.115Z,95964.47
2023-05-04T07:22:59.232Z,95963.91
2023-05-04T07:25:27.560Z,95964.97
2023-05-04T07:27:55.480Z,95959.69
2023-05-04T07:30:23.492Z,95956.84
2023-05-04T07:32:51.884Z,95952.00
2023-05-04T07:35:19.932Z,95962.84
2023-05-04T07:37:47.858Z,95951.69
2023-05-04T07:40:16.937Z,95955.81
2023-05-04T07:42:44.668Z,95948.06
2023-05-04T07:45:12.279Z,95950.50
2023-05-04T07:47:39.924Z,95954.22
2023-05-04T07:50:08.839Z,95946.81
2023-05-04T07:52:36.593Z,95947.63
2023-05-04T07:55:04.537Z,95952.34
2023-05-04T07:57:35.815Z,95941.88
2023-05-04T08:00:04.842Z,95949.97
2023-05-04T08:02:41.202Z,95944.25
2023-05-04T08:05:09.640Z,95937.00
2023-05-04T08:07:37.248Z,95938.56
2023-05-04T08:10:05.876Z,95937.09
2023-05-04T08:12:35.142Z,95938.97
2023-05-04T08:15:03.639Z,95930.44
2023-05-04T08:17:31.812Z,95933.41
2023-05-04T08:19:59.470Z,95926.25
2023-05-04T08:22:27.083Z,95927.59
2023-05-04T08:24:54.798Z,95937.09
2023-05-04T08:27:22.858Z,95930.41
2023-05-04T08:29:52.179Z,95934.09
2023-05-04T08:32:19.788Z,95937.22
2023-05-04T08:34:47.374Z,95941.00
2023-05-04T08:37:16.010Z,95939.66
2023-05-04T08:39:43.803Z,95932.59
2023-05-04T08:42:12.064Z,95940.91
2023-05-04T08:44:40.334Z,95942.91
2023-05-04T08:47:10.883Z,95946.28
2023-05-04T08:49:38.928Z,95943.81
2023-05-04T08:52:09.234Z,95949.28
2023-05-04T08:54:39.666Z,95945.56
2023-05-04T08:57:07.403Z,95941.84
2023-05-04T08:59:36.353Z,95936.41
2023-05-04T09:02:05.131Z,95943.63
2023-05-04T09:04:34.205Z,95945.03
2023-05-04T09:07:02.161Z,95943.00
2023-05-04T09:09:31.337Z,95942.81
2023-05-04T09:11:59.729Z,95946.22
2023-05-04T09:14:34.673Z,95942.69
2023-05-04T09:17:03.198Z,95932.28
2023-05-04T09:19:34.595Z,95935.22
2023-05-04T09:22:14.622Z,95943.56
2023-05-04T09:24:42.320Z,95929.94
2023-05-04T09:27:11.141Z,95933.63
2023-05-04T09:29:39.760Z,95938.19
2023-05-04T09:32:16.205Z,95941.28
2023-05-04T09:34:51.608Z,95929.06
2023-05-04T09:37:22.105Z,95923.53
2023-05-04T09:39:57.353Z,95916.16
2023-05-04T09:42:26.751Z,95917.28
2023-05-04T09:45:03.344Z,95915.31
2023-05-04T09:47:35.728Z,95923.28
2023-05-04T09:50:20.273Z,95926.69
2023-05-04T09:52:51.260Z,95919.34
2023-05-04T09:55:20.272Z,95914.19
2023-05-04T09:57:50.423Z,95920.50
2023-05-04T10:00:19.448Z,95917.16
2023-05-04T10:02:48.453Z,95905.69
2023-05-04T10:05:18.374Z,95906.31
2023-05-04T10:07:46.623Z,95897.09
2023-05-04T10:10:16.512Z,95895.13
2023-05-04T10:12:45.598Z,95893.41
2023-05-04T10:15:13.926Z,95892.41
2023-05-04T10:17:56.367Z,95888.22
2023-05-04T10:20:39.768Z,95885.59
2023-05-04T10:23:27.138Z,95890.25
2023-05-04T10:26:15.482Z,95891.78
2023-05-04T10:28:53.609Z,95883.50
2023-05-04T10:31:22.299Z,95879.31
2023-05-04T10:33:50.090Z,95880.34
2023-05-04T10:36:18.380Z,95872.19
2023-05-04T10:38:46.385Z,95870.81
2023-05-04T10:41:16.353Z,95854.75
2023-05-04T10:43:48.622Z,95868.81
2023-05-04T10:46:21.384Z,95859.00
2023-05-04T10:48:49.250Z,95855.69
2023-05-04T10:51:20.851Z,95857.97
2023-05-04T10:53:48.739Z,95859.28
2023-05-04T10:56:24.675Z,95858.47
2023-05-04T10:58:52.923Z,95853.84
2023-05-04T11:01:21.703Z,95846.59
2023-05-04T11:03:50.575Z,95851.91
2023-05-04T11:06:23.348Z,95849.28
2023-05-04T11:09:01.348Z,95847.25
2023-05-04T11:11:33.134Z,95843.50
2023-05-04T11:14:01.489Z,95840.81
2023-05-04T11:16:29.319Z,95826.78
2023-05-04T11:19:08.423Z,95830.56
2023-05-04T11:21:36.552Z,95830.81
2023-05-04T11:24:04.549Z,95826.25
2023-05-04T11:26:33.674Z,95827.31
2023-05-04T11:29:01.296Z,95824.59
2023-05-04T11:31:29.091Z,95820.28
2023-05-04T11:33:56.928Z,95831.63
2023-05-04T11:36:25.391Z,95820.50
2023-05-04T11:38:57.607Z,95818.94
2023-05-04T11:41:27.121Z,95815.44
2023-05-04T11:43:56.566Z,95803.00
2023-05-04T11:46:24.654Z,95797.63
2023-05-04T11:48:52.323Z,95801.94
2023-05-04T11:51:24.375Z,95804.09
2023-05-04T11:53:52.556Z,95810.06
2023-05-04T11:56:20.333Z,95802.50
2023-05-04T11:58:48.081Z,95801.97
2023-05-04T12:01:17.823Z,95800.31
2023-05-04T12:03:53.954Z,95803.56
2023-05-04T12:06:32.136Z,95797.38
2023-05-04T12:09:02.830Z,95796.00
2023-05-04T12:11:30.449Z,95791.72
2023-05-04T12:14:06.173Z,95796.84
2023-05-04T12:16:35.231Z,95791.72
2023-05-04T12:19:04.961Z,95798.19
2023-05-04T12:21:33.276Z,95791.44
2023-05-04T12:24:01.423Z,95791.16
2023-05-04T12:26:29.775Z,95778.75
2023-05-04T12:28:57.856Z,95777.69
2023-05-04T12:31:25.861Z,95782.81
2023-05-04T12:33:55.040Z,95776.03
2023-05-04T12:36:22.880Z,95767.94
2023-05-04T12:38:50.485Z,95770.63
2023-05-04T12:41:18.091Z,95767.31
2023-05-04T12:43:45.710Z,95774.41
2023-05-04T12:46:13.888Z,95772.00
2023-05-04T12:48:41.493Z,95774.13
2023-05-04T12:51:10.744Z,95773.06
2023-05-04T12:53:38.419Z,95763.56
2023-05-04T12:56:06.885Z,95767.41
2023-05-04T12:58:34.688Z,95769.03
2023-05-04T13:01:02.502Z,95763.34
2023-05-04T13:03:30.212Z,95760.66
2023-05-04T13:05:58.718Z,95754.16
2023-05-04T13:08:27.680Z,95743.63
2023-05-04T13:10:55.466Z,95743.59
2023-05-04T13:13:28.301Z,95751.69
2023-05-04T13:15:56.615Z,95744.41
2023-05-04T13:18:27.224Z,95731.75
2023-05-04T13:20:55.185Z,95740.94
2023-05-04T13:23:23.306Z,95736.09
2023-05-04T13:25:53.003Z,95725.81
2023-05-04T13:28:20.758Z,95731.44
2023-05-04T13:30:48.502Z,95721.44
2023-05-04T13:33:27.954Z,95727.34
2023-05-04T13:35:57.607Z,95718.16
2023-05-04T13:38:25.598Z,95709.00
2023-05-04T13:40:54.638Z,95711.16
2023-05-04T13:43:22.561Z,95713.78
2023-05-04T13:45:50.217Z,95705.88
2023-05-04T13:48:18.158Z,95707.75
2023-05-04T13:50:45.912Z,95701.28
2023-05-04T13:53:13.804Z,95706.19
2023-05-04T13:55:41.501Z,95709.00
2023-05-04T13:58:10.585Z,95702.59
2023-05-04T14:00:38.297Z,95699.25
2023-05-04T14:03:06.196Z,95697.88
2023-05-04T14:05:35.546Z,95692.41
2023-05-04T14:08:03.369Z,95693.22
2023-05-04T14:10:31.024Z,95693.72
2023-05-04T14:12:58.961Z,95688.81
2023-05-04T14:15:28.895Z,95678.19
2023-05-04T14:17:56.591Z,95676.53
2023-05-04T14:20:24.534Z,95674.25
2023-05-04T14:22:52.144Z,95672.81
2023-05-04T14:25:21.374Z,95669.50
2023-05-04T14:27:49.026Z,95673.75
2023-05-04T14:30:17.450Z,95669.75
2023-05-04T14:32:46.506Z,95677.03
2023-05-04T14:35:15.680Z,95671.81
2023-05-04T14:37:43.324Z,95660.28
2023-05-04T14:40:11.583Z,95664.63
2023-05-04T14:42:39.602Z,95667.97
2023-05-04T14:45:08.590Z,95671.53
2023-05-04T14:47:36.699Z,95665.44
2023-05-04T14:50:07.513Z,95658.22
2023-05-04T14:52:35.685Z,95656.00
2023-05-04T14:55:04.311Z,95646.53
2023-05-04T14:57:31.942Z,95650.88
2023-05-04T14:59:59.837Z,95647.66
2023-05-04T15:02:27.749Z,95643.22
2023-05-04T15:04:55.422Z,95641.25
2023-05-04T15:07:24.634Z,95646.00
2023-05-04T15:09:52.294Z,95651.03
2023-05-04T15:12:20.049Z,95636.72
2023-05-04T15:14:47.679Z,95631.66
2023-05-04T15:17:17.211Z,95635.81
2023-05-04T15:19:45.830Z,95627.81
2023-05-04T15:22:13.578Z,95622.91
2023-05-04T15:24:42.590Z,95623.56
2023-05-04T15:27:10.511Z,95622.75
2023-05-04T15:29:38.338Z,95620.88
2023-05-04T15:32:06.794Z,95618.75
2023-05-04T15:34:34.412Z,95614.19
2023-05-04T15:37:02.035Z,95616.59
2023-05-04T15:39:30.783Z,95617.75
2023-05-04T15:41:59.768Z,95611.19
2023-05-04T15:44:28.074Z,95608.00
2023-05-04T15:46:56.239Z,95612.34
2023-05-04T15:49:24.010Z,95604.59
2023-05-04T15:51:53.342Z,95609.53
2023-05-04T15:54:21.547Z,95608.94
2023-05-04T15:56:49.790Z,95612.09
2023-05-04T15:59:19.036Z,95606.56
2023-05-04T16:01:47.082Z,95600.75
2023-05-04T16:04:15.169Z,95603.09
2023-05-04T16:06:42.816Z,95611.97
2023-05-04T16:09:10.745Z,95609.63
2023-05-04T16:11:38.357Z,95601.47
2023-05-04T16:14:06.132Z,95600.69
2023-05-04T16:16:35.183Z,95604.09
2023-05-04T16:19:02.810Z,95597.97
2023-05-04T16:21:30.537Z,95594.16
2023-05-04T16:23:58.225Z,95592.97
2023-05-04T16:26:26.041Z,95588.97
2023-05-04T16:28:53.941Z,95587.03
2023-05-04T16:31:21.712Z,95592.84
2023-05-04T16:33:50.826Z,95596.19
2023-05-04T16:36:18.691Z,95590.88
2023-05-04T16:38:48.500Z,95586.69
2023-05-04T16:41:17.268Z,95578.84
2023-05-04T16:43:44.885Z,95578.09
2023-05-04T16:46:12.661Z,95586.25
2023-05-04T16:48:40.332Z,95588.44
2023-05-04T16:51:09.494Z,95584.53
2023-05-04T16:53:37.255Z,95577.44
2023-05-04T16:56:05.224Z,95582.38
2023-05-04T16:58:33.028Z,95575.44
2023-05-04T17:01:00.722Z,95578.22
2023-05-04T17:03:28.645Z,95567.59
2023-05-04T17:05:56.252Z,95575.19
2023-05-04T17:08:25.761Z,95577.50
2023-05-04T17:10:53.363Z,95580.22
2023-05-04T17:13:21.289Z,95573.19
2023-05-04T17:15:49.091Z,95577.44
2023-05-04T17:18:16.954Z,95568.78
2023-05-04T17:20:44.566Z,95570.59
2023-05-04T17:23:12.444Z,95580.69
2023-05-04T17:25:41.677Z,95581.13
2023-05-04T17:28:09.563Z,95583.44
2023-05-04T17:30:38.057Z,95578.50
2023-05-04T17:33:05.863Z,95585.31
2023-05-04T17:35:33.518Z,95590.63
2023-05-04T17:38:01.448Z,95589.31
2023-05-04T17:40:29.438Z,95586.00
2023-05-04T17:42:58.601Z,95587.50
2023-05-04T17:45:26.377Z,95591.53
2023-05-04T17:47:54.121Z,95597.94
2023-05-04T17:50:22.153Z,95596.75
2023-05-04T17:52:52.728Z,95593.31
2023-05-04T17:55:20.697Z,95610.91
2023-05-04T17:57:48.291Z,95611.75
2023-05-04T18:00:18.039Z,95617.00
2023-05-04T18:02:45.750Z,95613.34
2023-05-04T18:05:13.837Z,95615.22
2023-05-04T18:07:41.476Z,95626.25
2023-05-04T18:10:09.932Z,95622.03
2023-05-04T18:12:38.526Z,95626.75
2023-05-04T18:15:08.181Z,95630.63
2023-05-04T18:17:37.986Z,95622.50
2023-05-04T18:20:08.885Z,95631.53
2023-05-04T18:22:37.253Z,95633.09
2023-05-04T18:25:05.405Z,95635.50
2023-05-04T18:27:33.500Z,95639.00
2023-05-04T18:30:01.249Z,95645.19
2023-05-04T18:32:29.011Z,95647.66
2023-05-04T18:34:58.617Z,95648.50
2023-05-04T18:37:26.662Z,95651.75
2023-05-04T18:39:54.432Z,95654.78
2023-05-04T18:42:22.189Z,95648.59
2023-05-04T18:44:51.607Z,95656.59
2023-05-04T18:47:19.503Z,95651.38
2023-05-04T18:49:50.976Z,95662.19
2023-05-04T18:52:19.983Z,95658.56
2023-05-04T18:54:47.615Z,95660.03
2023-05-04T18:57:15.262Z,95667.56
2023-05-04T18:59:42.878Z,95669.50
2023-05-04T19:02:11.020Z,95667.72
2023-05-04T19:04:38.654Z,95669.66
2023-05-04T19:07:06.551Z,95670.78
2023-05-04T19:09:35.896Z,95670.06
2023-05-04T19:12:04.896Z,95660.41
2023-05-04T19:14:32.888Z,95657.91
2023-05-04T19:17:02.232Z,95670.03
2023-05-04T19:19:30.176Z,95664.66
2023-05-04T19:21:58.498Z,95663.69
2023-05-04T19:24:26.303Z,95674.06
2023-05-04T19:26:55.911Z,95677.63
2023-05-04T19:29:25.634Z,95679.50
2023-05-04T19:31:56.114Z,95676.09
2023-05-04T19:34:23.882Z,95675.72
2023-05-04T19:36:52.751Z,95673.13
2023-05-04T19:39:20.995Z,95678.75
2023-05-04T19:41:48.859Z,95672.88
2023-05-04T19:44:17.903Z,95682.75
2023-05-04T19:46:47.216Z,95691.84
2023-05-04T19:49:16.110Z,95682.50
2023-05-04T19:51:46.183Z,95690.78
2023-05-04T19:54:18.965Z,95690.00
2023-05-04T19:56:46.765Z,95687.16
2023-05-04T19:59:14.400Z,95686.38
2023-05-04T20:01:43.702Z,95677.03
2023-05-04T20:04:12.241Z,95688.16
2023-05-04T20:06:40.081Z,95694.72
2023-05-04T20:09:07.731Z,95696.19
2023-05-04T20:11:36.250Z,95699.47
2023-05-04T20:14:03.879Z,95705.44
2023-05-04T20:16:31.783Z,95693.66
2023-05-04T20:19:03.595Z,95703.91
2023-05-04T20:21:32.143Z,95695.38
2023-05-04T20:23:59.802Z,95692.13
2023-05-04T20:26:27.537Z,95701.97
2023-05-04T20:28:55.129Z,95697.06
2023-05-04T20:31:22.994Z,95695.84
2023-05-04T20:33:50.682Z,95693.03
2023-05-04T20:36:19.670Z,95689.34
2023-05-04T20:38:47.303Z,95693.03
2023-05-04T20:41:15.088Z,95706.16
2023-05-04T20:43:42.797Z,95704.91
2023-05-04T20:46:10.744Z,95699.81
2023-05-04T20:48:38.838Z,95701.63
2023-05-04T20:53:42.267Z,95702.88
2023-05-04T20:56:10.669Z,95694.72
2023-05-04T20:58:38.674Z,95706.34
2023-05-04T21:01:06.810Z,95704.34
2023-05-04T21:03:34.810Z,95703.31
2023-05-04T21:06:02.882Z,95699.00
2023-05-04T21:08:30.600Z,95701.06
2023-05-04T21:10:59.596Z,95693.53
2023-05-04T21:13:27.251Z,95690.66
2023-05-04T21:15:55.231Z,95697.41
2023-05-04T21:18:22.845Z,95686.56
2023-05-04T21:20:50.491Z,95680.63
2023-05-04T21:23:18.543Z,95673.91
2023-05-04T21:25:46.148Z,95683.28
2023-05-04T21:28:15.234Z,95671.66
2023-05-04T21:30:43.425Z,95682.03
2023-05-04T21:33:11.128Z,95674.72
2023-05-04T21:35:38.733Z,95683.03
2023-05-04T21:38:06.765Z,95680.00
2023-05-04T21:40:34.508Z,95682.84
2023-05-04T21:43:02.430Z,95686.28
2023-05-04T21:45:32.974Z,95685.69
2023-05-04T21:48:02.316Z,95687.09
2023-05-04T21:50:31.027Z,95694.22
2023-05-04T21:52:58.632Z,95683.19
2023-05-04T21:55:26.397Z,95682.13
2023-05-04T21:57:54.069Z,95687.28
2023-05-04T22:00:22.245Z,95690.06
2023-05-04T22:02:51.533Z,95682.06
2023-05-04T22:05:22.255Z,95691.25
2023-05-04T22:07:50.150Z,95683.50
2023-05-04T22:10:18.191Z,95679.59
2023-05-04T22:12:45.833Z,95682.66
2023-05-04T22:15:14.279Z,95686.72
2023-05-04T22:17:41.977Z,95683.84
2023-05-04T22:20:12.537Z,95687.91
2023-05-04T22:22:40.131Z,95683.38
2023-05-04T22:25:08.399Z,95680.13
2023-05-04T22:27:36.042Z,95678.88
2023-05-04T22:30:03.968Z,95685.94
2023-05-04T22:32:31.808Z,95688.69
2023-05-04T22:34:59.530Z,95676.84
2023-05-04T22:37:28.522Z,95681.19
2023-05-04T22:39:56.209Z,95678.31
2023-05-04T22:42:23.940Z,95688.31
2023-05-04T22:44:51.564Z,95695.00
2023-05-04T22:47:19.175Z,95687.69
2023-05-04T22:49:46.998Z,95679.28
2023-05-04T22:52:14.778Z,95688.19
2023-05-04T22:54:43.814Z,95688.47
2023-05-04T22:57:11.597Z,95685.28
2023-05-04T22:59:39.222Z,95684.06
2023-05-04T23:02:07.261Z,95688.53
2023-05-04T23:04:34.992Z,95692.06
2023-05-04T23:07:02.775Z,95687.91
2023-05-04T23:09:30.591Z,95692.03
2023-05-04T23:12:00.046Z,95693.97
2023-05-04T23:14:27.653Z,95698.19
2023-05-04T23:16:55.382Z,95688.72
2023-05-04T23:19:23.005Z,95691.84
2023-05-04T23:21:50.747Z,95699.38
2023-05-04T23:24:18.378Z,95696.28
2023-05-04T23:26:46.111Z,95691.00
2023-05-04T23:29:15.149Z,95688.84
2023-05-04T23:31:43.216Z,95686.63
2023-05-04T23:34:11.047Z,95681.63
2023-05-04T23:36:38.663Z,95682.97
2023-05-04T23:39:06.422Z,95684.81
2023-05-04T23:41:34.124Z,95686.91
2023-05-04T23:44:02.054Z,95683.66
2023-05-04T23:46:31.022Z,95686.91
2023-05-04T23:48:58.822Z,95679.00
2023-05-04T23:51:28.408Z,95681.63
2023-05-04T23:53:56.456Z,95687.28
2023-05-04T23:56:24.084Z,95683.31
2023-05-04T23:58:51.844Z,95675.00
